sensor_id;sensor_type;location;lat;lon;timestamp;P1;durP1;ratioP1;P2;durP2;ratioP2
32491;SDS011;20605;49.742;18.802;2022-09-09T00:00:23;3.47;;;3.17;;
32491;SDS011;20605;49.742;18.802;2022-09-09T00:05:41;3.50;;;3.20;;
32491;SDS011;20605;49.742;18.802;2022-09-09T00:08:29;3.70;;;3.20;;
32491;SDS011;20605;49.742;18.802;2022-09-09T00:11:03;3.85;;;2.75;;
32491;SDS011;20605;49.742;18.802;2022-09-09T00:13:35;3.25;;;2.85;;
32491;SDS011;20605;49.742;18.802;2022-09-09T00:21:59;6.83;;;5.45;;
32491;SDS011;20605;49.742;18.802;2022-09-09T00:24:46;6.75;;;4.92;;
32491;SDS011;20605;49.742;18.802;2022-09-09T00:32:47;4.75;;;4.22;;
32491;SDS011;20605;49.742;18.802;2022-09-09T00:37:58;3.92;;;3.40;;
32491;SDS011;20605;49.742;18.802;2022-09-09T00:40:29;4.10;;;3.33;;
32491;SDS011;20605;49.742;18.802;2022-09-09T00:48:44;3.27;;;3.05;;
32491;SDS011;20605;49.742;18.802;2022-09-09T00:51:35;3.85;;;3.52;;
32491;SDS011;20605;49.742;18.802;2022-09-09T00:57:18;3.72;;;3.45;;
32491;SDS011;20605;49.742;18.802;2022-09-09T01:05:29;3.90;;;3.12;;
32491;SDS011;20605;49.742;18.802;2022-09-09T01:08:02;3.40;;;3.10;;
32491;SDS011;20605;49.742;18.802;2022-09-09T01:13:13;4.33;;;3.75;;
32491;SDS011;20605;49.742;18.802;2022-09-09T01:15:58;3.77;;;2.95;;
32491;SDS011;20605;49.742;18.802;2022-09-09T01:18:32;4.35;;;3.22;;
32491;SDS011;20605;49.742;18.802;2022-09-09T01:27:04;3.95;;;3.25;;
32491;SDS011;20605;49.742;18.802;2022-09-09T01:29:32;3.52;;;3.05;;
32491;SDS011;20605;49.742;18.802;2022-09-09T01:32:00;4.37;;;3.27;;
32491;SDS011;20605;49.742;18.802;2022-09-09T01:34:31;4.90;;;3.33;;
32491;SDS011;20605;49.742;18.802;2022-09-09T01:37:02;4.28;;;3.10;;
32491;SDS011;20605;49.742;18.802;2022-09-09T01:39:33;3.70;;;3.40;;
32491;SDS011;20605;49.742;18.802;2022-09-09T01:42:03;4.72;;;3.20;;
32491;SDS011;20605;49.742;18.802;2022-09-09T01:44:33;3.52;;;3.20;;
32491;SDS011;20605;49.742;18.802;2022-09-09T01:47:02;4.42;;;3.20;;
32491;SDS011;20605;49.742;18.802;2022-09-09T01:49:30;4.08;;;3.20;;
32491;SDS011;20605;49.742;18.802;2022-09-09T01:52:00;7.92;;;3.17;;
32491;SDS011;20605;49.742;18.802;2022-09-09T01:54:31;3.62;;;3.33;;
32491;SDS011;20605;49.742;18.802;2022-09-09T02:05:42;3.95;;;3.62;;
32491;SDS011;20605;49.742;18.802;2022-09-09T02:08:28;4.53;;;3.50;;
32491;SDS011;20605;49.742;18.802;2022-09-09T02:11:13;4.30;;;3.90;;
32491;SDS011;20605;49.742;18.802;2022-09-09T02:13:51;3.90;;;3.50;;
32491;SDS011;20605;49.742;18.802;2022-09-09T02:16:28;6.33;;;3.70;;
32491;SDS011;20605;49.742;18.802;2022-09-09T02:19:35;3.75;;;3.42;;
32491;SDS011;20605;49.742;18.802;2022-09-09T02:22:06;5.10;;;4.30;;
32491;SDS011;20605;49.742;18.802;2022-09-09T02:24:35;6.33;;;4.10;;
32491;SDS011;20605;49.742;18.802;2022-09-09T02:27:13;5.20;;;4.28;;
32491;SDS011;20605;49.742;18.802;2022-09-09T02:29:43;4.53;;;4.12;;
32491;SDS011;20605;49.742;18.802;2022-09-09T02:32:12;5.33;;;4.30;;
32491;SDS011;20605;49.742;18.802;2022-09-09T02:34:53;5.33;;;4.10;;
32491;SDS011;20605;49.742;18.802;2022-09-09T02:37:23;4.90;;;4.30;;
32491;SDS011;20605;49.742;18.802;2022-09-09T02:39:55;7.62;;;4.20;;
32491;SDS011;20605;49.742;18.802;2022-09-09T02:42:22;5.62;;;4.00;;
32491;SDS011;20605;49.742;18.802;2022-09-09T02:44:50;7.35;;;4.15;;
32491;SDS011;20605;49.742;18.802;2022-09-09T02:47:35;4.83;;;4.42;;
32491;SDS011;20605;49.742;18.802;2022-09-09T02:50:26;5.05;;;4.65;;
32491;SDS011;20605;49.742;18.802;2022-09-09T02:53:02;6.17;;;4.15;;
32491;SDS011;20605;49.742;18.802;2022-09-09T02:55:39;7.12;;;4.80;;
32491;SDS011;20605;49.742;18.802;2022-09-09T02:58:11;7.00;;;4.45;;
32491;SDS011;20605;49.742;18.802;2022-09-09T03:03:15;5.12;;;4.17;;
32491;SDS011;20605;49.742;18.802;2022-09-09T03:05:43;5.45;;;4.10;;
32491;SDS011;20605;49.742;18.802;2022-09-09T03:08:11;5.58;;;4.17;;
32491;SDS011;20605;49.742;18.802;2022-09-09T03:10:38;4.60;;;4.12;;
32491;SDS011;20605;49.742;18.802;2022-09-09T03:13:06;4.72;;;4.33;;
32491;SDS011;20605;49.742;18.802;2022-09-09T03:15:35;6.33;;;4.50;;
32491;SDS011;20605;49.742;18.802;2022-09-09T03:18:04;4.65;;;4.10;;
32491;SDS011;20605;49.742;18.802;2022-09-09T03:20:32;4.83;;;4.30;;
32491;SDS011;20605;49.742;18.802;2022-09-09T03:22:59;4.92;;;3.83;;
32491;SDS011;20605;49.742;18.802;2022-09-09T03:25:27;5.53;;;3.90;;
32491;SDS011;20605;49.742;18.802;2022-09-09T03:27:54;4.75;;;3.52;;
32491;SDS011;20605;49.742;18.802;2022-09-09T03:30:22;6.42;;;3.67;;
32491;SDS011;20605;49.742;18.802;2022-09-09T03:32:54;4.10;;;3.27;;
32491;SDS011;20605;49.742;18.802;2022-09-09T03:35:24;4.53;;;3.55;;
32491;SDS011;20605;49.742;18.802;2022-09-09T03:37:50;4.28;;;3.08;;
32491;SDS011;20605;49.742;18.802;2022-09-09T03:40:17;3.58;;;3.20;;
32491;SDS011;20605;49.742;18.802;2022-09-09T03:42:45;6.62;;;3.10;;
32491;SDS011;20605;49.742;18.802;2022-09-09T03:45:11;4.95;;;3.20;;
32491;SDS011;20605;49.742;18.802;2022-09-09T03:47:39;8.10;;;3.20;;
32491;SDS011;20605;49.742;18.802;2022-09-09T03:50:06;4.58;;;3.00;;
32491;SDS011;20605;49.742;18.802;2022-09-09T03:52:37;6.17;;;3.25;;
32491;SDS011;20605;49.742;18.802;2022-09-09T03:55:08;3.92;;;3.62;;
32491;SDS011;20605;49.742;18.802;2022-09-09T03:57:36;4.70;;;3.62;;
32491;SDS011;20605;49.742;18.802;2022-09-09T04:00:04;3.85;;;3.52;;
32491;SDS011;20605;49.742;18.802;2022-09-09T04:02:35;3.70;;;3.40;;
32491;SDS011;20605;49.742;18.802;2022-09-09T04:05:02;5.70;;;3.92;;
32491;SDS011;20605;49.742;18.802;2022-09-09T04:07:29;5.72;;;3.60;;
32491;SDS011;20605;49.742;18.802;2022-09-09T04:09:56;4.33;;;3.70;;
32491;SDS011;20605;49.742;18.802;2022-09-09T04:12:23;5.53;;;3.52;;
32491;SDS011;20605;49.742;18.802;2022-09-09T04:14:50;4.62;;;4.22;;
32491;SDS011;20605;49.742;18.802;2022-09-09T04:17:17;4.72;;;3.40;;
32491;SDS011;20605;49.742;18.802;2022-09-09T04:19:43;3.62;;;3.22;;
32491;SDS011;20605;49.742;18.802;2022-09-09T04:22:10;3.62;;;3.33;;
32491;SDS011;20605;49.742;18.802;2022-09-09T04:24:37;4.40;;;2.83;;
32491;SDS011;20605;49.742;18.802;2022-09-09T04:27:04;5.67;;;4.17;;
32491;SDS011;20605;49.742;18.802;2022-09-09T04:29:31;4.12;;;3.58;;
32491;SDS011;20605;49.742;18.802;2022-09-09T04:31:59;6.08;;;3.60;;
32491;SDS011;20605;49.742;18.802;2022-09-09T04:34:25;3.80;;;3.50;;
32491;SDS011;20605;49.742;18.802;2022-09-09T04:36:52;4.42;;;3.42;;
32491;SDS011;20605;49.742;18.802;2022-09-09T04:39:19;4.35;;;2.98;;
32491;SDS011;20605;49.742;18.802;2022-09-09T04:41:46;5.53;;;3.45;;
32491;SDS011;20605;49.742;18.802;2022-09-09T04:44:12;3.30;;;3.00;;
32491;SDS011;20605;49.742;18.802;2022-09-09T04:46:39;6.08;;;3.20;;
32491;SDS011;20605;49.742;18.802;2022-09-09T04:49:07;3.08;;;2.72;;
32491;SDS011;20605;49.742;18.802;2022-09-09T04:51:33;2.85;;;2.65;;
32491;SDS011;20605;49.742;18.802;2022-09-09T04:54:00;3.65;;;3.30;;
32491;SDS011;20605;49.742;18.802;2022-09-09T04:56:27;4.03;;;2.80;;
32491;SDS011;20605;49.742;18.802;2022-09-09T05:02:31;3.47;;;2.80;;
32491;SDS011;20605;49.742;18.802;2022-09-09T05:04:59;4.05;;;2.80;;
32491;SDS011;20605;49.742;18.802;2022-09-09T05:07:26;3.72;;;3.15;;
32491;SDS011;20605;49.742;18.802;2022-09-09T05:09:54;5.50;;;3.55;;
32491;SDS011;20605;49.742;18.802;2022-09-09T05:12:24;4.90;;;3.62;;
32491;SDS011;20605;49.742;18.802;2022-09-09T05:14:55;3.45;;;3.15;;
32491;SDS011;20605;49.742;18.802;2022-09-09T05:17:21;3.55;;;3.25;;
32491;SDS011;20605;49.742;18.802;2022-09-09T05:19:48;4.10;;;3.70;;
32491;SDS011;20605;49.742;18.802;2022-09-09T05:22:19;3.47;;;3.25;;
32491;SDS011;20605;49.742;18.802;2022-09-09T05:24:47;5.50;;;3.42;;
32491;SDS011;20605;49.742;18.802;2022-09-09T05:27:15;5.10;;;3.47;;
32491;SDS011;20605;49.742;18.802;2022-09-09T05:29:46;3.40;;;3.05;;
32491;SDS011;20605;49.742;18.802;2022-09-09T05:32:14;3.42;;;3.22;;
32491;SDS011;20605;49.742;18.802;2022-09-09T05:34:43;5.25;;;3.45;;
32491;SDS011;20605;49.742;18.802;2022-09-09T05:37:11;5.10;;;3.70;;
32491;SDS011;20605;49.742;18.802;2022-09-09T05:39:38;3.83;;;3.40;;
32491;SDS011;20605;49.742;18.802;2022-09-09T05:42:05;3.95;;;3.10;;
32491;SDS011;20605;49.742;18.802;2022-09-09T05:44:32;3.47;;;3.02;;
32491;SDS011;20605;49.742;18.802;2022-09-09T05:46:59;3.70;;;2.98;;
32491;SDS011;20605;49.742;18.802;2022-09-09T05:49:26;3.67;;;2.90;;
32491;SDS011;20605;49.742;18.802;2022-09-09T05:51:52;3.80;;;2.50;;
32491;SDS011;20605;49.742;18.802;2022-09-09T05:54:19;4.33;;;2.60;;
32491;SDS011;20605;49.742;18.802;2022-09-09T05:56:48;4.55;;;2.62;;
32491;SDS011;20605;49.742;18.802;2022-09-09T05:59:16;6.17;;;2.47;;
32491;SDS011;20605;49.742;18.802;2022-09-09T06:01:44;2.90;;;2.50;;
32491;SDS011;20605;49.742;18.802;2022-09-09T06:04:16;4.50;;;2.62;;
32491;SDS011;20605;49.742;18.802;2022-09-09T06:06:43;2.62;;;2.42;;
32491;SDS011;20605;49.742;18.802;2022-09-09T06:09:12;3.20;;;2.22;;
32491;SDS011;20605;49.742;18.802;2022-09-09T06:11:40;2.70;;;2.50;;
32491;SDS011;20605;49.742;18.802;2022-09-09T06:14:08;2.62;;;2.42;;
32491;SDS011;20605;49.742;18.802;2022-09-09T06:16:37;2.72;;;2.10;;
32491;SDS011;20605;49.742;18.802;2022-09-09T06:19:05;2.20;;;2.00;;
32491;SDS011;20605;49.742;18.802;2022-09-09T06:21:34;2.95;;;1.80;;
32491;SDS011;20605;49.742;18.802;2022-09-09T06:24:03;2.35;;;2.20;;
32491;SDS011;20605;49.742;18.802;2022-09-09T06:26:32;3.33;;;2.15;;
32491;SDS011;20605;49.742;18.802;2022-09-09T06:29:01;2.80;;;2.45;;
32491;SDS011;20605;49.742;18.802;2022-09-09T06:31:30;4.40;;;2.72;;
32491;SDS011;20605;49.742;18.802;2022-09-09T06:34:03;4.00;;;2.42;;
32491;SDS011;20605;49.742;18.802;2022-09-09T06:36:37;2.62;;;2.42;;
32491;SDS011;20605;49.742;18.802;2022-09-09T06:39:04;2.95;;;2.62;;
32491;SDS011;20605;49.742;18.802;2022-09-09T06:41:33;4.30;;;2.67;;
32491;SDS011;20605;49.742;18.802;2022-09-09T06:44:01;2.62;;;2.40;;
32491;SDS011;20605;49.742;18.802;2022-09-09T06:46:31;3.17;;;2.58;;
32491;SDS011;20605;49.742;18.802;2022-09-09T06:48:59;2.80;;;2.60;;
32491;SDS011;20605;49.742;18.802;2022-09-09T06:51:34;3.87;;;3.58;;
32491;SDS011;20605;49.742;18.802;2022-09-09T06:54:02;3.17;;;2.83;;
32491;SDS011;20605;49.742;18.802;2022-09-09T06:56:31;2.75;;;2.50;;
32491;SDS011;20605;49.742;18.802;2022-09-09T06:59:04;3.25;;;2.80;;
32491;SDS011;20605;49.742;18.802;2022-09-09T07:01:35;3.20;;;2.30;;
32491;SDS011;20605;49.742;18.802;2022-09-09T07:04:10;3.27;;;2.60;;
32491;SDS011;20605;49.742;18.802;2022-09-09T07:06:41;2.80;;;2.60;;
32491;SDS011;20605;49.742;18.802;2022-09-09T07:09:13;2.98;;;2.77;;
32491;SDS011;20605;49.742;18.802;2022-09-09T07:11:49;3.10;;;2.35;;
32491;SDS011;20605;49.742;18.802;2022-09-09T07:14:15;2.60;;;2.45;;
32491;SDS011;20605;49.742;18.802;2022-09-09T07:16:44;2.95;;;2.75;;
32491;SDS011;20605;49.742;18.802;2022-09-09T07:19:12;2.50;;;2.40;;
32491;SDS011;20605;49.742;18.802;2022-09-09T07:21:41;3.83;;;2.62;;
32491;SDS011;20605;49.742;18.802;2022-09-09T07:24:09;2.45;;;2.35;;
32491;SDS011;20605;49.742;18.802;2022-09-09T07:26:38;2.62;;;2.33;;
32491;SDS011;20605;49.742;18.802;2022-09-09T07:29:06;3.40;;;3.20;;
32491;SDS011;20605;49.742;18.802;2022-09-09T07:31:35;2.30;;;2.20;;
32491;SDS011;20605;49.742;18.802;2022-09-09T07:34:07;3.50;;;2.25;;
32491;SDS011;20605;49.742;18.802;2022-09-09T07:36:38;2.40;;;2.20;;
32491;SDS011;20605;49.742;18.802;2022-09-09T07:39:06;2.10;;;2.00;;
32491;SDS011;20605;49.742;18.802;2022-09-09T07:41:40;2.10;;;2.00;;
32491;SDS011;20605;49.742;18.802;2022-09-09T07:44:12;2.25;;;1.87;;
32491;SDS011;20605;49.742;18.802;2022-09-09T07:46:43;2.00;;;1.90;;
32491;SDS011;20605;49.742;18.802;2022-09-09T07:49:13;2.40;;;2.15;;
32491;SDS011;20605;49.742;18.802;2022-09-09T07:51:42;2.10;;;2.00;;
32491;SDS011;20605;49.742;18.802;2022-09-09T07:54:13;1.75;;;1.70;;
32491;SDS011;20605;49.742;18.802;2022-09-09T07:56:42;2.10;;;2.00;;
32491;SDS011;20605;49.742;18.802;2022-09-09T07:59:10;2.30;;;2.10;;
32491;SDS011;20605;49.742;18.802;2022-09-09T08:01:40;2.10;;;2.00;;
32491;SDS011;20605;49.742;18.802;2022-09-09T08:04:16;2.47;;;2.27;;
32491;SDS011;20605;49.742;18.802;2022-09-09T08:09:19;2.50;;;2.30;;
32491;SDS011;20605;49.742;18.802;2022-09-09T08:11:49;2.80;;;2.70;;
32491;SDS011;20605;49.742;18.802;2022-09-09T08:14:16;3.30;;;3.10;;
32491;SDS011;20605;49.742;18.802;2022-09-09T08:16:45;2.52;;;2.37;;
32491;SDS011;20605;49.742;18.802;2022-09-09T08:19:16;2.80;;;2.60;;
32491;SDS011;20605;49.742;18.802;2022-09-09T08:21:44;3.15;;;2.85;;
32491;SDS011;20605;49.742;18.802;2022-09-09T08:24:12;3.08;;;2.92;;
32491;SDS011;20605;49.742;18.802;2022-09-09T08:26:44;2.22;;;2.12;;
32491;SDS011;20605;49.742;18.802;2022-09-09T08:29:15;2.50;;;2.30;;
32491;SDS011;20605;49.742;18.802;2022-09-09T08:31:47;2.47;;;2.35;;
32491;SDS011;20605;49.742;18.802;2022-09-09T08:34:17;2.30;;;2.20;;
32491;SDS011;20605;49.742;18.802;2022-09-09T08:36:48;2.10;;;2.00;;
32491;SDS011;20605;49.742;18.802;2022-09-09T08:39:18;2.20;;;2.10;;
32491;SDS011;20605;49.742;18.802;2022-09-09T08:47:39;2.40;;;2.30;;
32491;SDS011;20605;49.742;18.802;2022-09-09T08:55:53;3.00;;;2.80;;
32491;SDS011;20605;49.742;18.802;2022-09-09T08:58:34;2.30;;;2.20;;
32491;SDS011;20605;49.742;18.802;2022-09-09T09:06:50;2.08;;;1.98;;
32491;SDS011;20605;49.742;18.802;2022-09-09T09:12:27;1.60;;;1.57;;
32491;SDS011;20605;49.742;18.802;2022-09-09T09:14:45;2.20;;;2.10;;
32491;SDS011;20605;49.742;18.802;2022-09-09T09:17:15;1.90;;;1.90;;
32491;SDS011;20605;49.742;18.802;2022-09-09T09:19:48;2.00;;;1.90;;
32491;SDS011;20605;49.742;18.802;2022-09-09T09:22:22;2.05;;;1.95;;
32491;SDS011;20605;49.742;18.802;2022-09-09T09:28:01;2.12;;;1.95;;
32491;SDS011;20605;49.742;18.802;2022-09-09T09:30:50;2.25;;;2.15;;
32491;SDS011;20605;49.742;18.802;2022-09-09T09:36:38;2.00;;;1.90;;
32491;SDS011;20605;49.742;18.802;2022-09-09T09:39:24;2.22;;;1.75;;
32491;SDS011;20605;49.742;18.802;2022-09-09T09:41:57;1.72;;;1.62;;
32491;SDS011;20605;49.742;18.802;2022-09-09T09:47:14;1.40;;;1.30;;
32491;SDS011;20605;49.742;18.802;2022-09-09T09:50:00;1.32;;;1.32;;
32491;SDS011;20605;49.742;18.802;2022-09-09T09:52:27;1.30;;;1.30;;
32491;SDS011;20605;49.742;18.802;2022-09-09T09:54:59;1.47;;;1.37;;
32491;SDS011;20605;49.742;18.802;2022-09-09T09:57:30;1.42;;;1.32;;
32491;SDS011;20605;49.742;18.802;2022-09-09T10:00:01;1.60;;;1.50;;
32491;SDS011;20605;49.742;18.802;2022-09-09T10:02:43;1.42;;;1.20;;
32491;SDS011;20605;49.742;18.802;2022-09-09T10:16:41;2.25;;;1.15;;
32491;SDS011;20605;49.742;18.802;2022-09-09T10:19:32;1.10;;;1.10;;
32491;SDS011;20605;49.742;18.802;2022-09-09T10:30:31;0.80;;;0.80;;
32491;SDS011;20605;49.742;18.802;2022-09-09T10:36:20;0.85;;;0.70;;
32491;SDS011;20605;49.742;18.802;2022-09-09T10:39:06;0.95;;;0.95;;
32491;SDS011;20605;49.742;18.802;2022-09-09T10:47:46;1.17;;;1.07;;
32491;SDS011;20605;49.742;18.802;2022-09-09T10:53:05;4.70;;;1.00;;
32491;SDS011;20605;49.742;18.802;2022-09-09T10:55:41;2.40;;;0.90;;
32491;SDS011;20605;49.742;18.802;2022-09-09T10:58:16;1.20;;;1.10;;
32491;SDS011;20605;49.742;18.802;2022-09-09T11:00:51;0.88;;;0.88;;
32491;SDS011;20605;49.742;18.802;2022-09-09T11:03:21;1.25;;;1.17;;
32491;SDS011;20605;49.742;18.802;2022-09-09T11:05:53;1.32;;;1.22;;
32491;SDS011;20605;49.742;18.802;2022-09-09T11:08:30;2.37;;;1.32;;
32491;SDS011;20605;49.742;18.802;2022-09-09T11:11:04;1.17;;;0.95;;
32491;SDS011;20605;49.742;18.802;2022-09-09T11:16:34;2.25;;;1.70;;
32491;SDS011;20605;49.742;18.802;2022-09-09T11:19:27;2.30;;;1.70;;
32491;SDS011;20605;49.742;18.802;2022-09-09T11:25:00;3.58;;;1.62;;
32491;SDS011;20605;49.742;18.802;2022-09-09T11:33:49;3.30;;;1.30;;
32491;SDS011;20605;49.742;18.802;2022-09-09T11:42:28;1.40;;;1.30;;
32491;SDS011;20605;49.742;18.802;2022-09-09T11:44:55;1.60;;;1.50;;
32491;SDS011;20605;49.742;18.802;2022-09-09T11:47:24;1.60;;;1.50;;
32491;SDS011;20605;49.742;18.802;2022-09-09T11:50:41;1.98;;;1.45;;
32491;SDS011;20605;49.742;18.802;2022-09-09T11:52:47;1.32;;;1.20;;
32491;SDS011;20605;49.742;18.802;2022-09-09T11:55:28;1.30;;;1.20;;
32491;SDS011;20605;49.742;18.802;2022-09-09T11:58:00;1.30;;;1.20;;
32491;SDS011;20605;49.742;18.802;2022-09-09T12:00:41;1.30;;;1.20;;
32491;SDS011;20605;49.742;18.802;2022-09-09T12:03:31;1.37;;;1.27;;
32491;SDS011;20605;49.742;18.802;2022-09-09T12:05:59;1.25;;;1.15;;
32491;SDS011;20605;49.742;18.802;2022-09-09T12:08:50;2.60;;;0.98;;
32491;SDS011;20605;49.742;18.802;2022-09-09T12:11:27;1.92;;;1.10;;
32491;SDS011;20605;49.742;18.802;2022-09-09T12:13:58;1.25;;;1.15;;
32491;SDS011;20605;49.742;18.802;2022-09-09T12:16:31;1.00;;;1.00;;
32491;SDS011;20605;49.742;18.802;2022-09-09T12:19:04;1.42;;;1.10;;
32491;SDS011;20605;49.742;18.802;2022-09-09T12:30:09;1.40;;;1.30;;
32491;SDS011;20605;49.742;18.802;2022-09-09T12:32:40;1.02;;;0.90;;
32491;SDS011;20605;49.742;18.802;2022-09-09T12:37:50;1.15;;;1.10;;
32491;SDS011;20605;49.742;18.802;2022-09-09T12:40:23;1.20;;;1.20;;
32491;SDS011;20605;49.742;18.802;2022-09-09T12:42:57;1.07;;;0.93;;
32491;SDS011;20605;49.742;18.802;2022-09-09T12:45:26;2.77;;;1.15;;
32491;SDS011;20605;49.742;18.802;2022-09-09T12:50:29;1.20;;;1.10;;
32491;SDS011;20605;49.742;18.802;2022-09-09T12:53:14;1.75;;;1.30;;
32491;SDS011;20605;49.742;18.802;2022-09-09T12:55:48;1.10;;;1.00;;
32491;SDS011;20605;49.742;18.802;2022-09-09T12:58:17;1.30;;;1.10;;
32491;SDS011;20605;49.742;18.802;2022-09-09T13:00:49;1.37;;;1.25;;
32491;SDS011;20605;49.742;18.802;2022-09-09T13:03:22;2.08;;;1.12;;
32491;SDS011;20605;49.742;18.802;2022-09-09T13:05:50;1.50;;;1.40;;
32491;SDS011;20605;49.742;18.802;2022-09-09T13:08:19;0.98;;;0.90;;
32491;SDS011;20605;49.742;18.802;2022-09-09T13:10:48;1.80;;;1.00;;
32491;SDS011;20605;49.742;18.802;2022-09-09T13:13:25;1.05;;;1.05;;
32491;SDS011;20605;49.742;18.802;2022-09-09T13:15:59;1.10;;;0.98;;
32491;SDS011;20605;49.742;18.802;2022-09-09T13:18:31;0.93;;;0.93;;
32491;SDS011;20605;49.742;18.802;2022-09-09T13:21:01;2.42;;;1.15;;
32491;SDS011;20605;49.742;18.802;2022-09-09T13:23:33;1.50;;;1.10;;
32491;SDS011;20605;49.742;18.802;2022-09-09T13:26:03;1.30;;;1.10;;
32491;SDS011;20605;49.742;18.802;2022-09-09T13:28:33;1.02;;;1.02;;
32491;SDS011;20605;49.742;18.802;2022-09-09T13:31:01;0.85;;;0.85;;
32491;SDS011;20605;49.742;18.802;2022-09-09T13:33:38;1.40;;;1.30;;
32491;SDS011;20605;49.742;18.802;2022-09-09T13:36:07;1.42;;;1.00;;
32491;SDS011;20605;49.742;18.802;2022-09-09T13:38:37;2.10;;;1.10;;
32491;SDS011;20605;49.742;18.802;2022-09-09T13:41:18;1.20;;;1.20;;
32491;SDS011;20605;49.742;18.802;2022-09-09T13:43:51;1.52;;;1.30;;
32491;SDS011;20605;49.742;18.802;2022-09-09T13:46:32;1.10;;;1.00;;
32491;SDS011;20605;49.742;18.802;2022-09-09T13:51:41;1.52;;;1.42;;
32491;SDS011;20605;49.742;18.802;2022-09-09T13:54:13;1.40;;;1.30;;
32491;SDS011;20605;49.742;18.802;2022-09-09T13:56:41;1.30;;;1.20;;
32491;SDS011;20605;49.742;18.802;2022-09-09T13:59:17;1.47;;;1.37;;
32491;SDS011;20605;49.742;18.802;2022-09-09T14:01:45;1.50;;;1.40;;
32491;SDS011;20605;49.742;18.802;2022-09-09T14:04:18;1.57;;;1.45;;
32491;SDS011;20605;49.742;18.802;2022-09-09T14:06:49;1.67;;;1.45;;
32491;SDS011;20605;49.742;18.802;2022-09-09T14:09:17;1.20;;;1.10;;
32491;SDS011;20605;49.742;18.802;2022-09-09T14:11:44;2.33;;;1.20;;
32491;SDS011;20605;49.742;18.802;2022-09-09T14:14:11;1.65;;;1.45;;
32491;SDS011;20605;49.742;18.802;2022-09-09T14:16:38;1.32;;;1.22;;
32491;SDS011;20605;49.742;18.802;2022-09-09T14:19:07;1.42;;;1.32;;
32491;SDS011;20605;49.742;18.802;2022-09-09T14:21:35;1.10;;;1.10;;
32491;SDS011;20605;49.742;18.802;2022-09-09T14:24:02;1.60;;;1.50;;
32491;SDS011;20605;49.742;18.802;2022-09-09T14:26:28;1.60;;;1.42;;
32491;SDS011;20605;49.742;18.802;2022-09-09T14:28:55;1.30;;;1.20;;
32491;SDS011;20605;49.742;18.802;2022-09-09T14:31:22;1.40;;;1.30;;
32491;SDS011;20605;49.742;18.802;2022-09-09T14:33:50;1.37;;;1.30;;
32491;SDS011;20605;49.742;18.802;2022-09-09T14:36:16;2.33;;;1.42;;
32491;SDS011;20605;49.742;18.802;2022-09-09T14:38:43;2.67;;;1.98;;
32491;SDS011;20605;49.742;18.802;2022-09-09T14:41:14;4.78;;;2.10;;
32491;SDS011;20605;49.742;18.802;2022-09-09T14:43:43;2.72;;;2.08;;
32491;SDS011;20605;49.742;18.802;2022-09-09T14:46:12;3.72;;;2.00;;
32491;SDS011;20605;49.742;18.802;2022-09-09T14:48:42;3.35;;;1.87;;
32491;SDS011;20605;49.742;18.802;2022-09-09T14:51:12;4.05;;;1.98;;
32491;SDS011;20605;49.742;18.802;2022-09-09T14:53:45;3.02;;;2.10;;
32491;SDS011;20605;49.742;18.802;2022-09-09T14:56:13;4.33;;;2.30;;
32491;SDS011;20605;49.742;18.802;2022-09-09T14:58:47;2.80;;;1.72;;
32491;SDS011;20605;49.742;18.802;2022-09-09T15:01:15;1.80;;;1.70;;
32491;SDS011;20605;49.742;18.802;2022-09-09T15:03:57;1.87;;;1.52;;
32491;SDS011;20605;49.742;18.802;2022-09-09T15:06:31;2.22;;;1.67;;
32491;SDS011;20605;49.742;18.802;2022-09-09T15:09:02;4.22;;;1.80;;
32491;SDS011;20605;49.742;18.802;2022-09-09T15:11:33;2.00;;;1.77;;
32491;SDS011;20605;49.742;18.802;2022-09-09T15:14:04;2.62;;;2.22;;
32491;SDS011;20605;49.742;18.802;2022-09-09T15:16:33;1.80;;;1.70;;
32491;SDS011;20605;49.742;18.802;2022-09-09T15:19:01;2.17;;;1.70;;
32491;SDS011;20605;49.742;18.802;2022-09-09T15:21:33;2.42;;;1.80;;
32491;SDS011;20605;49.742;18.802;2022-09-09T15:24:02;2.08;;;1.87;;
32491;SDS011;20605;49.742;18.802;2022-09-09T15:26:30;4.67;;;4.20;;
32491;SDS011;20605;49.742;18.802;2022-09-09T15:28:57;6.47;;;3.10;;
32491;SDS011;20605;49.742;18.802;2022-09-09T15:31:27;5.87;;;3.27;;
32491;SDS011;20605;49.742;18.802;2022-09-09T15:33:57;5.28;;;2.83;;
32491;SDS011;20605;49.742;18.802;2022-09-09T15:36:28;5.60;;;2.20;;
32491;SDS011;20605;49.742;18.802;2022-09-09T15:39:00;4.05;;;2.47;;
32491;SDS011;20605;49.742;18.802;2022-09-09T15:41:29;3.08;;;2.33;;
32491;SDS011;20605;49.742;18.802;2022-09-09T15:44:00;1.85;;;1.75;;
32491;SDS011;20605;49.742;18.802;2022-09-09T15:46:37;2.70;;;2.30;;
32491;SDS011;20605;49.742;18.802;2022-09-09T15:49:17;4.28;;;2.50;;
32491;SDS011;20605;49.742;18.802;2022-09-09T15:51:50;5.47;;;4.15;;
32491;SDS011;20605;49.742;18.802;2022-09-09T15:54:24;4.78;;;3.58;;
32491;SDS011;20605;49.742;18.802;2022-09-09T15:56:56;3.85;;;3.27;;
32491;SDS011;20605;49.742;18.802;2022-09-09T15:59:25;3.62;;;3.33;;
32491;SDS011;20605;49.742;18.802;2022-09-09T16:01:54;3.50;;;3.20;;
32491;SDS011;20605;49.742;18.802;2022-09-09T16:04:21;2.98;;;2.40;;
32491;SDS011;20605;49.742;18.802;2022-09-09T16:06:50;4.25;;;3.60;;
32491;SDS011;20605;49.742;18.802;2022-09-09T16:09:24;2.85;;;2.42;;
32491;SDS011;20605;49.742;18.802;2022-09-09T16:11:52;2.62;;;2.00;;
32491;SDS011;20605;49.742;18.802;2022-09-09T16:14:24;2.15;;;1.92;;
32491;SDS011;20605;49.742;18.802;2022-09-09T16:16:51;2.45;;;2.17;;
32491;SDS011;20605;49.742;18.802;2022-09-09T16:19:17;2.40;;;2.12;;
32491;SDS011;20605;49.742;18.802;2022-09-09T16:21:45;3.58;;;2.20;;
32491;SDS011;20605;49.742;18.802;2022-09-09T16:24:17;8.08;;;2.30;;
32491;SDS011;20605;49.742;18.802;2022-09-09T16:26:45;2.33;;;2.00;;
32491;SDS011;20605;49.742;18.802;2022-09-09T16:29:15;3.08;;;2.25;;
32491;SDS011;20605;49.742;18.802;2022-09-09T16:31:43;2.75;;;2.20;;
32491;SDS011;20605;49.742;18.802;2022-09-09T16:34:15;4.15;;;2.60;;
32491;SDS011;20605;49.742;18.802;2022-09-09T16:36:43;3.27;;;2.75;;
32491;SDS011;20605;49.742;18.802;2022-09-09T16:39:12;7.05;;;3.08;;
32491;SDS011;20605;49.742;18.802;2022-09-09T16:41:41;3.62;;;2.98;;
32491;SDS011;20605;49.742;18.802;2022-09-09T16:44:11;4.00;;;3.00;;
32491;SDS011;20605;49.742;18.802;2022-09-09T16:46:40;7.80;;;3.77;;
32491;SDS011;20605;49.742;18.802;2022-09-09T16:49:09;4.33;;;3.27;;
32491;SDS011;20605;49.742;18.802;2022-09-09T16:51:44;3.02;;;2.62;;
32491;SDS011;20605;49.742;18.802;2022-09-09T16:54:14;10.55;;;2.92;;
32491;SDS011;20605;49.742;18.802;2022-09-09T16:56:43;4.03;;;3.10;;
32491;SDS011;20605;49.742;18.802;2022-09-09T16:59:14;4.87;;;3.10;;
32491;SDS011;20605;49.742;18.802;2022-09-09T17:01:46;3.45;;;2.95;;
32491;SDS011;20605;49.742;18.802;2022-09-09T17:04:21;2.83;;;2.42;;
32491;SDS011;20605;49.742;18.802;2022-09-09T17:06:47;2.65;;;2.45;;
32491;SDS011;20605;49.742;18.802;2022-09-09T17:09:16;4.80;;;3.20;;
32491;SDS011;20605;49.742;18.802;2022-09-09T17:11:44;4.25;;;3.65;;
32491;SDS011;20605;49.742;18.802;2022-09-09T17:14:14;4.08;;;2.77;;
32491;SDS011;20605;49.742;18.802;2022-09-09T17:16:43;3.58;;;3.20;;
32491;SDS011;20605;49.742;18.802;2022-09-09T17:19:10;2.70;;;2.47;;
32491;SDS011;20605;49.742;18.802;2022-09-09T17:21:38;4.58;;;2.25;;
32491;SDS011;20605;49.742;18.802;2022-09-09T17:24:05;3.37;;;2.25;;
32491;SDS011;20605;49.742;18.802;2022-09-09T17:26:33;8.18;;;2.77;;
32491;SDS011;20605;49.742;18.802;2022-09-09T17:29:00;6.15;;;2.70;;